createdAt,value
2017-05-02T00:00:29.057Z,63.23
2017-05-02T00:01:39.400Z,62.94
2017-05-02T00:02:49.438Z,62.94
2017-05-02T00:03:59.794Z,62.65
2017-05-02T00:05:10.160Z,63.23
2017-05-02T00:06:20.176Z,63.13
2017-05-02T00:07:30.522Z,63.13
2017-05-02T00:08:40.870Z,63.2
2017-05-02T00:09:51.240Z,63.1
2017-05-02T00:11:01.599Z,63.1
2017-05-02T00:12:11.646Z,63.1
2017-05-02T00:13:21.749Z,63
2017-05-02T00:14:32.334Z,63.1
2017-05-02T00:15:42.684Z,63.1
2017-05-02T00:16:53.022Z,62.91
2017-05-02T00:18:03.049Z,62.91
2017-05-02T00:19:13.396Z,62.71
2017-05-02T00:20:23.736Z,62.71
2017-05-02T00:21:34.074Z,63.1
2017-05-02T00:22:44.115Z,62.71
2017-05-02T00:23:54.462Z,62.81
2017-05-02T00:25:04.826Z,62.91
2017-05-02T00:26:14.849Z,62.81
2017-05-02T00:27:24.902Z,62.81
2017-05-02T00:28:35.239Z,62.62
2017-05-02T00:29:45.594Z,62.71
2017-05-02T00:30:55.948Z,62.71
2017-05-02T00:32:06.289Z,62.91
2017-05-02T00:33:16.344Z,62.91
2017-05-02T00:34:26.688Z,62.81
2017-05-02T00:35:36.743Z,62.81
2017-05-02T00:36:47.094Z,62.91
2017-05-02T00:37:57.452Z,62.81
2017-05-02T00:39:07.498Z,62.91
2017-05-02T00:40:17.537Z,62.81
2017-05-02T00:41:27.601Z,62.15
2017-05-02T00:42:37.960Z,62.91
2017-05-02T00:43:48.328Z,63
2017-05-02T00:44:58.686Z,62.91
2017-05-02T00:46:09.052Z,62.15
2017-05-02T00:47:19.400Z,62.15
2017-05-02T00:48:29.455Z,62.05
2017-05-02T00:49:39.810Z,62.15
2017-05-02T00:50:50.152Z,62.15
2017-05-02T00:52:00.495Z,62.34
2017-05-02T00:53:10.829Z,62.71
2017-05-02T00:54:20.865Z,62.34
2017-05-02T00:55:31.221Z,62.15
2017-05-02T00:56:41.562Z,62.43
2017-05-02T00:57:51.901Z,62.15
2017-05-02T00:59:01.928Z,62.43
2017-05-02T01:00:12.268Z,62.52
2017-05-02T01:01:22.618Z,62.43
2017-05-02T01:02:32.950Z,62.43
2017-05-02T01:03:43.316Z,62.43
2017-05-02T01:04:53.385Z,62.43
2017-05-02T01:06:03.725Z,62.24
2017-05-02T01:07:13.751Z,62.62
2017-05-02T01:08:23.487Z,62.24
2017-05-02T01:09:33.844Z,62.52
2017-05-02T01:10:43.567Z,62.43
2017-05-02T01:11:53.914Z,62.24
2017-05-02T01:13:04.267Z,62.24
2017-05-02T01:14:14.608Z,62.43
2017-05-02T01:15:24.973Z,62.15
2017-05-02T01:16:35.310Z,62.43
2017-05-02T01:17:45.682Z,62.15
2017-05-02T01:18:56.029Z,62.81
2017-05-02T01:20:06.393Z,62.24
2017-05-02T01:21:16.167Z,62.24
2017-05-02T01:22:26.193Z,62.15
2017-05-02T01:23:36.234Z,62.34
2017-05-02T01:24:46.581Z,62.43
2017-05-02T01:25:56.939Z,62.52
2017-05-02T01:27:06.645Z,62.24
2017-05-02T01:28:16.996Z,62.43
2017-05-02T01:29:27.350Z,62.52
2017-05-02T01:30:37.384Z,62.34
2017-05-02T01:31:47.732Z,62.43
2017-05-02T01:32:57.445Z,62.55
2017-05-02T01:34:07.806Z,62.15
2017-05-02T01:35:18.159Z,62.15
2017-05-02T01:36:28.508Z,62.43
2017-05-02T01:37:38.861Z,62.34
2017-05-02T01:38:49.203Z,62.15
2017-05-02T01:39:59.248Z,62.24
2017-05-02T01:41:09.296Z,62.34
2017-05-02T01:42:19.017Z,62.52
2017-05-02T01:43:29.398Z,62.43
2017-05-02T01:44:39.743Z,62.05
2017-05-02T01:45:49.781Z,62.34
2017-05-02T01:47:00.375Z,62.81
2017-05-02T01:48:10.730Z,62.81
2017-05-02T01:49:21.068Z,62.71
2017-05-02T01:50:31.403Z,62.71
2017-05-02T01:51:41.771Z,62.62
2017-05-02T01:52:51.814Z,63.07
2017-05-02T01:54:02.170Z,63.16
2017-05-02T01:55:12.516Z,62.88
2017-05-02T01:56:22.858Z,62.97
2017-05-02T01:57:33.194Z,63.04
2017-05-02T01:58:43.227Z,62.94
2017-05-02T01:59:53.588Z,62.94
2017-05-02T02:01:03.950Z,62.84
2017-05-02T02:02:14.288Z,62.94
2017-05-02T02:03:24.636Z,63
2017-05-02T02:04:34.999Z,63
2017-05-02T02:05:45.331Z,63.1
2017-05-02T02:06:55.708Z,62.81
2017-05-02T02:08:06.059Z,63.17
2017-05-02T02:09:16.410Z,62.97
2017-05-02T02:10:26.769Z,62.88
2017-05-02T02:11:36.809Z,62.88
2017-05-02T02:12:47.145Z,63.07
2017-05-02T02:13:57.499Z,62.78
2017-05-02T02:15:07.857Z,62.59
2017-05-02T02:16:18.222Z,62.88
2017-05-02T02:17:28.591Z,62.59
2017-05-02T02:18:38.612Z,62.59
2017-05-02T02:19:48.970Z,62.59
2017-05-02T02:20:59.310Z,62.68
2017-05-02T02:22:09.650Z,62.78
2017-05-02T02:23:19.994Z,62.88
2017-05-02T02:24:30.346Z,62.78
2017-05-02T02:25:40.703Z,62.12
2017-05-02T02:26:51.049Z,62.08
2017-05-02T02:28:01.102Z,62.85
2017-05-02T02:29:11.158Z,62.56
2017-05-02T02:30:21.537Z,62.65
2017-05-02T02:31:31.889Z,62.56
2017-05-02T02:32:41.932Z,62.75
2017-05-02T02:33:51.960Z,62.18
2017-05-02T02:35:02.310Z,62.85
2017-05-02T02:36:12.356Z,62.75
2017-05-02T02:37:22.380Z,62.75
2017-05-02T02:38:32.716Z,62.08
2017-05-02T02:39:43.062Z,62.27
2017-05-02T02:40:52.803Z,61.99
2017-05-02T02:42:03.154Z,62.24
2017-05-02T02:43:13.540Z,62.05
2017-05-02T02:44:23.570Z,61.96
2017-05-02T02:45:33.910Z,62.15
2017-05-02T02:46:43.924Z,62.34
2017-05-02T02:47:54.323Z,62.24
2017-05-02T02:49:04.692Z,62.08
2017-05-02T02:50:15.013Z,62.15
2017-05-02T02:51:24.401Z,62.18
2017-05-02T02:52:34.751Z,62.46
2017-05-02T02:53:44.782Z,61.99
2017-05-02T02:54:55.127Z,61.7
2017-05-02T02:56:05.470Z,61.7
2017-05-02T02:57:15.813Z,61.7
2017-05-02T02:58:25.844Z,61.9
2017-05-02T02:59:35.871Z,61.8
2017-05-02T03:00:45.903Z,61.7
2017-05-02T03:01:55.634Z,61.61
2017-05-02T03:32:57.955Z,59.68
2017-05-02T03:34:07.976Z,59.68
2017-05-02T03:35:17.987Z,60.25
2017-05-02T03:36:28.329Z,61.48
2017-05-02T03:37:38.686Z,61.87
2017-05-02T03:38:48.729Z,61.96
2017-05-02T03:39:59.073Z,62.62
2017-05-02T03:41:09.436Z,63.01
2017-05-02T03:42:19.477Z,62.85
2017-05-02T03:43:29.192Z,62.75
2017-05-02T03:44:39.538Z,62.85
2017-05-02T03:45:49.891Z,63.17
2017-05-02T03:47:00.241Z,62.88
2017-05-02T03:48:10.588Z,62.97
2017-05-02T03:49:20.609Z,62.97
2017-05-02T03:50:30.021Z,62.69
2017-05-02T03:51:40.064Z,63.01
2017-05-02T03:52:50.409Z,63.01
2017-05-02T03:54:00.767Z,62.81
2017-05-02T03:55:11.128Z,63.01
2017-05-02T03:56:21.151Z,62.91
2017-05-02T03:57:31.506Z,62.75
2017-05-02T03:58:41.553Z,62.56
2017-05-02T03:59:51.913Z,62.94
2017-05-02T04:01:02.271Z,62.56
2017-05-02T04:02:12.633Z,62.65
2017-05-02T04:03:22.970Z,62.56
2017-05-02T04:04:33.012Z,62.65
2017-05-02T04:05:43.386Z,62.78
2017-05-02T04:06:52.790Z,62.68
2017-05-02T04:08:03.178Z,62.59
2017-05-02T04:09:13.554Z,62.88
2017-05-02T04:10:23.259Z,61.93
2017-05-02T04:11:33.302Z,62.12
2017-05-02T04:12:43.330Z,62.68
2017-05-02T04:13:53.363Z,62.78
2017-05-02T04:15:03.704Z,62.78
2017-05-02T04:16:14.059Z,62.88
2017-05-02T04:17:24.398Z,62.59
2017-05-02T04:18:34.748Z,62.12
2017-05-02T04:19:45.097Z,62.78
2017-05-02T04:20:55.438Z,62.78
2017-05-02T04:22:05.773Z,62.02
2017-05-02T04:23:15.814Z,62.21
2017-05-02T04:24:25.859Z,62.02
2017-05-02T04:25:35.585Z,62.21
2017-05-02T04:26:45.629Z,62.02
2017-05-02T04:27:55.974Z,62.3
2017-05-02T04:29:06.323Z,62.02
2017-05-02T04:30:16.676Z,62.05
2017-05-02T04:31:27.037Z,62.43
2017-05-02T04:32:37.387Z,62.3
2017-05-02T04:33:47.426Z,62.02
2017-05-02T04:34:57.797Z,61.96
2017-05-02T04:36:08.147Z,61.93
2017-05-02T04:37:18.187Z,62.05
2017-05-02T04:38:28.537Z,62.24
2017-05-02T04:39:38.883Z,62.88
2017-05-02T04:40:49.217Z,62.88
2017-05-02T04:41:59.258Z,62.81
2017-05-02T04:43:09.623Z,62.15
2017-05-02T04:44:19.975Z,62.05
2017-05-02T04:45:30.321Z,62.34
2017-05-02T04:46:40.662Z,62.34
2017-05-02T04:47:50.698Z,62.52
2017-05-02T04:49:01.047Z,62.62
2017-05-02T04:50:11.079Z,62.52
2017-05-02T04:51:21.426Z,62.24
2017-05-02T04:52:31.771Z,62.08
2017-05-02T04:53:42.120Z,61.96
2017-05-02T04:54:52.151Z,61.99
2017-05-02T04:56:02.179Z,61.99
2017-05-02T04:57:12.198Z,61.7
2017-05-02T04:58:22.547Z,61.8
2017-05-02T04:59:32.913Z,61.8
2017-05-02T05:00:43.270Z,61.7
2017-05-02T05:01:53.606Z,61.89
2017-05-02T05:03:03.673Z,61.7
2017-05-02T05:04:14.036Z,61.7
2017-05-02T05:05:24.067Z,62.08
2017-05-02T05:06:34.453Z,61.6
2017-05-02T05:07:44.481Z,61.7
2017-05-02T05:08:54.517Z,62.08
2017-05-02T05:10:04.864Z,61.7
2017-05-02T05:11:15.209Z,61.99
2017-05-02T05:12:25.239Z,61.8
2017-05-02T05:13:35.265Z,62.08
2017-05-02T05:14:45.621Z,62.11
2017-05-02T05:15:55.958Z,62.02
2017-05-02T05:17:05.987Z,61.92
2017-05-02T05:18:16.326Z,61.83
2017-05-02T05:19:26.669Z,61.92
2017-05-02T05:20:37.015Z,61.92
2017-05-02T05:21:47.052Z,62.21
2017-05-02T05:22:57.388Z,61.76
2017-05-02T05:24:07.743Z,61.76
2017-05-02T05:25:18.081Z,61
2017-05-02T05:26:28.422Z,61.29
2017-05-02T05:27:38.774Z,61.66
2017-05-02T05:28:49.134Z,61.76
2017-05-02T05:29:59.177Z,61.66
2017-05-02T05:31:09.535Z,61.57
2017-05-02T05:32:19.890Z,61.66
2017-05-02T05:33:30.165Z,61.38
2017-05-02T05:34:40.228Z,61.89
2017-05-02T05:35:50.583Z,61.89
2017-05-02T05:37:00.936Z,61.79
2017-05-02T05:38:11.277Z,61.79
2017-05-02T05:39:21.626Z,61.69
2017-05-02T05:40:31.974Z,61.79
2017-05-02T05:41:42.001Z,61.89
2017-05-02T05:42:52.352Z,61.69
2017-05-02T05:44:02.726Z,61.89
2017-05-02T05:45:13.066Z,61.79
2017-05-02T05:46:23.393Z,61.41
2017-05-02T05:47:33.724Z,61.41
2017-05-02T05:48:44.073Z,61.44
2017-05-02T05:49:54.437Z,60.87
2017-05-02T05:51:04.158Z,60.87
2017-05-02T05:52:14.522Z,60.58
2017-05-02T05:53:24.858Z,60.77
2017-05-02T05:54:35.212Z,60.9
2017-05-02T05:55:45.565Z,60.52
2017-05-02T05:56:55.937Z,60.33
2017-05-02T05:58:06.290Z,60.71
2017-05-02T05:59:16.627Z,60.61
2017-05-02T06:00:26.673Z,60.42
2017-05-02T06:01:36.715Z,60.55
2017-05-02T06:02:47.043Z,60.74
2017-05-02T06:03:57.063Z,60.26
2017-05-02T06:05:07.409Z,60.19
2017-05-02T06:06:17.446Z,60.1
2017-05-02T06:07:27.773Z,60.38
2017-05-02T06:08:37.796Z,60.19
2017-05-02T06:09:47.817Z,60.22
2017-05-02T06:10:58.184Z,60.13
2017-05-02T06:12:08.526Z,60.06
2017-05-02T06:13:18.888Z,59.87
2017-05-02T06:14:29.229Z,60.13
2017-05-02T06:15:39.560Z,60.44
2017-05-02T06:16:49.907Z,60.06
2017-05-02T06:18:00.254Z,60.13
2017-05-02T06:19:10.610Z,60.32
2017-05-02T06:20:20.957Z,60.32
2017-05-02T06:21:31.304Z,60.99
2017-05-02T06:22:41.325Z,61.37
2017-05-02T06:23:51.351Z,61.66
2017-05-02T06:25:01.687Z,61.57
2017-05-02T06:26:12.045Z,61.44
2017-05-02T06:27:21.752Z,60.96
2017-05-02T06:28:31.794Z,60.7
2017-05-02T06:29:41.833Z,60.61
2017-05-02T06:30:51.869Z,60.61
2017-05-02T06:32:02.237Z,60.44
2017-05-02T06:33:12.276Z,59.87
2017-05-02T06:34:22.322Z,60.09
2017-05-02T06:35:32.701Z,60.28
2017-05-02T06:36:43.052Z,60.22
2017-05-02T06:37:53.399Z,60.22
2017-05-02T06:39:03.772Z,60.22
2017-05-02T06:40:14.127Z,59.45
2017-05-02T06:41:24.167Z,60.22
2017-05-02T06:42:34.525Z,60.25
2017-05-02T06:43:44.592Z,60.44
2017-05-02T06:44:54.653Z,60.15
2017-05-02T06:46:04.994Z,60.15
2017-05-02T06:47:15.331Z,60.05
2017-05-02T06:48:25.674Z,60.25
2017-05-02T06:49:35.740Z,60.05
2017-05-02T06:50:45.772Z,59.67
2017-05-02T06:51:55.828Z,60.05
2017-05-02T06:53:06.175Z,60.18
2017-05-02T06:54:16.533Z,60.08
2017-05-02T06:55:26.595Z,59.89
2017-05-02T06:56:36.941Z,59.99
2017-05-02T06:57:47.021Z,59.8
2017-05-02T06:58:57.376Z,59.32
2017-05-02T07:00:07.429Z,58.87
2017-05-02T07:01:17.777Z,59.06
2017-05-02T07:02:28.298Z,59.83
2017-05-02T07:03:38.637Z,60.28
2017-05-02T07:04:48.972Z,60.47
2017-05-02T07:05:59.343Z,60.85
2017-05-02T07:07:09.696Z,60.38
2017-05-02T07:08:20.041Z,60.63
2017-05-02T07:09:30.077Z,60.44
2017-05-02T07:10:40.439Z,60.25
2017-05-02T07:11:50.512Z,60.25
2017-05-02T07:13:00.894Z,59.89
2017-05-02T07:14:11.240Z,59.89
2017-05-02T07:15:21.285Z,60.11
2017-05-02T07:16:31.348Z,59.73
2017-05-02T07:17:41.378Z,59.64
2017-05-02T07:18:51.736Z,59.83
2017-05-02T07:20:02.089Z,59.92
2017-05-02T07:21:12.512Z,59.83
2017-05-02T07:22:22.848Z,60.4
2017-05-02T07:23:32.894Z,60.21
2017-05-02T07:24:42.627Z,60.69
2017-05-02T07:25:53.008Z,60.4
2017-05-02T07:27:03.044Z,60.31
2017-05-02T07:28:13.080Z,59.28
2017-05-02T07:29:23.158Z,59.31
2017-05-02T07:30:33.500Z,58.73
2017-05-02T07:31:43.533Z,58.86
2017-05-02T07:32:53.882Z,58.86
2017-05-02T07:34:04.245Z,58.95
2017-05-02T07:35:14.602Z,59.15
2017-05-02T07:36:24.971Z,59.15
2017-05-02T07:37:35.326Z,60.21
2017-05-02T07:38:45.674Z,59.89
2017-05-02T07:39:56.024Z,59.82
2017-05-02T07:41:06.370Z,60.11
2017-05-02T07:42:16.408Z,59.72
2017-05-02T07:43:26.459Z,59.72
2017-05-02T07:44:36.822Z,59.15
2017-05-02T07:45:46.853Z,60.04
2017-05-02T07:46:57.198Z,60.49
2017-05-02T07:48:07.535Z,60.3
2017-05-02T07:49:17.887Z,60.39
2017-05-02T07:50:28.236Z,60.78
2017-05-02T07:51:38.595Z,60.75
2017-05-02T07:52:48.934Z,60.39
2017-05-02T07:53:59.315Z,60.49
2017-05-02T07:55:09.663Z,60.21
2017-05-02T07:56:19.993Z,60.3
2017-05-02T07:57:30.028Z,60.33
2017-05-02T07:58:40.060Z,60.11
2017-05-02T07:59:50.409Z,59.92
2017-05-02T08:01:00.434Z,59.94
2017-05-02T08:02:10.795Z,59.94
2017-05-02T08:03:20.824Z,59.85
2017-05-02T08:04:31.177Z,59.17
2017-05-02T08:05:41.531Z,59.27
2017-05-02T08:06:51.895Z,59.17
2017-05-02T08:08:02.248Z,59.85
2017-05-02T08:09:12.611Z,59.94
2017-05-02T08:10:22.668Z,60.04
2017-05-02T08:11:33.019Z,60.14
2017-05-02T08:12:43.301Z,59.85
2017-05-02T08:13:53.655Z,59.56
2017-05-02T08:15:03.698Z,59.4
2017-05-02T08:16:14.046Z,59.49
2017-05-02T08:17:24.418Z,59.3
2017-05-02T08:18:34.452Z,59.2
2017-05-02T08:19:44.480Z,59.23
2017-05-02T08:20:54.843Z,59.43
2017-05-02T08:22:05.188Z,59.33
2017-05-02T08:23:15.541Z,59.23
2017-05-02T08:24:25.589Z,59.52
2017-05-02T08:25:35.622Z,59.23
2017-05-02T08:26:45.650Z,59.72
2017-05-02T08:27:55.705Z,60.1
2017-05-02T08:29:05.739Z,60.27
2017-05-02T08:30:16.084Z,60.55
2017-05-02T08:31:26.426Z,60.27
2017-05-02T08:32:36.450Z,60.27
2017-05-02T08:33:46.825Z,60.62
2017-05-02T08:34:57.203Z,60.65
2017-05-02T08:36:07.589Z,60.33
2017-05-02T08:37:17.993Z,60.52
2017-05-02T08:38:28.030Z,60.42
2017-05-02T08:39:38.380Z,60.49
2017-05-02T08:40:48.444Z,60.97
2017-05-02T08:41:58.794Z,60.49
2017-05-02T08:43:09.139Z,60.39
2017-05-02T08:44:19.500Z,60.49
2017-05-02T08:45:29.224Z,60.78
2017-05-02T08:46:39.263Z,60.78
2017-05-02T08:47:49.601Z,60.49
2017-05-02T08:48:59.958Z,60.39
2017-05-02T08:50:10.299Z,61.26
2017-05-02T08:51:20.649Z,60.78
2017-05-02T08:52:31.012Z,62.03
2017-05-02T08:53:41.362Z,61.71
2017-05-02T08:54:51.472Z,61.71
2017-05-02T08:56:01.839Z,61.23
2017-05-02T08:57:12.192Z,61.14
2017-05-02T08:58:22.255Z,61.23
2017-05-02T08:59:32.305Z,61.14
2017-05-02T09:00:42.663Z,61.14
2017-05-02T09:01:53.010Z,60.94
2017-05-02T09:03:03.359Z,60.85
2017-05-02T09:04:13.393Z,60.85
2017-05-02T09:05:23.798Z,61.07
2017-05-02T09:06:34.195Z,60.97
2017-05-02T09:07:44.549Z,60.85
2017-05-02T09:08:54.575Z,60.75
2017-05-02T09:10:04.621Z,60.78
2017-05-02T09:11:14.973Z,60.88
2017-05-02T09:12:25.012Z,60.59
2017-05-02T09:13:35.364Z,60.49
2017-05-02T09:14:45.706Z,60.88
2017-05-02T09:15:55.730Z,60.97
2017-05-02T09:17:05.779Z,60.97
2017-05-02T09:18:15.822Z,60.97
2017-05-02T09:19:26.173Z,61.1
2017-05-02T09:20:36.223Z,61.1
2017-05-02T09:21:46.274Z,61.1
2017-05-02T09:22:56.312Z,61
2017-05-02T09:24:06.668Z,61
2017-05-02T09:25:16.707Z,60.94
2017-05-02T09:26:26.730Z,61.22
2017-05-02T09:27:36.784Z,61.32
2017-05-02T09:28:46.831Z,61.1
2017-05-02T09:29:57.184Z,61
2017-05-02T09:31:08.284Z,61.22
2017-05-02T09:32:19.013Z,60.81
2017-05-02T09:33:29.368Z,62
2017-05-02T09:34:39.725Z,61.29
2017-05-02T09:35:50.129Z,61.04
2017-05-02T09:36:59.861Z,61.22
2017-05-02T09:38:10.062Z,61.04
2017-05-02T09:39:22.253Z,60.94
2017-05-02T09:40:32.605Z,60.58
2017-05-02T09:41:42.663Z,61.13
2017-05-02T09:42:52.725Z,61.07
2017-05-02T09:44:02.444Z,61.16
2017-05-02T09:45:12.189Z,60.87
2017-05-02T09:46:22.552Z,60.68
2017-05-02T09:47:32.961Z,61.07
2017-05-02T09:48:42.990Z,60.94
2017-05-02T09:49:53.336Z,60.84
2017-05-02T09:51:03.686Z,61.04
2017-05-02T09:52:14.049Z,60.84
2017-05-02T09:53:24.407Z,60.55
2017-05-02T09:54:34.762Z,61.04
2017-05-02T09:55:44.832Z,61.04
2017-05-02T09:56:55.170Z,61.22
2017-05-02T09:58:05.525Z,61.25
2017-05-02T09:59:15.571Z,60.49
2017-05-02T10:00:25.929Z,60.58
2017-05-02T10:01:36.006Z,60.77
2017-05-02T10:02:46.384Z,60.68
2017-05-02T10:03:56.745Z,60.58
2017-05-02T10:05:06.847Z,60.97
2017-05-02T10:06:17.199Z,60.97
2017-05-02T10:07:27.261Z,61
2017-05-02T10:08:37.329Z,60.61
2017-05-02T10:09:47.686Z,60.52
2017-05-02T10:10:58.043Z,60.52
2017-05-02T10:12:08.081Z,60.61
2017-05-02T10:13:18.172Z,61
2017-05-02T10:14:28.280Z,61
2017-05-02T10:15:38.312Z,60.93
2017-05-02T10:16:48.670Z,60.64
2017-05-02T10:17:59.042Z,60.83
2017-05-02T10:19:09.416Z,61.13
2017-05-02T10:20:19.458Z,60.93
2017-05-02T10:21:29.482Z,60.58
2017-05-02T10:22:39.829Z,60.28
2017-05-02T10:23:49.859Z,60.38
2017-05-02T10:25:00.207Z,60.86
2017-05-02T10:26:10.561Z,60.38
2017-05-02T10:27:20.288Z,61.03
2017-05-02T10:28:30.639Z,60.96
2017-05-02T10:29:40.984Z,61.06
2017-05-02T10:30:51.334Z,61.06
2017-05-02T10:32:01.377Z,61.06
2017-05-02T10:33:11.410Z,60.48
2017-05-02T10:34:21.455Z,60.58
2017-05-02T10:35:31.485Z,61.09
2017-05-02T10:36:41.220Z,60.99
2017-05-02T10:37:51.583Z,60.41
2017-05-02T10:39:01.623Z,60.99
2017-05-02T10:40:11.359Z,60.89
2017-05-02T10:41:21.705Z,60.8
2017-05-02T10:42:32.056Z,60.8
2017-05-02T10:43:42.433Z,60.8
2017-05-02T10:44:52.785Z,60.71
2017-05-02T10:46:02.842Z,60.99
2017-05-02T10:47:13.180Z,60.71
2017-05-02T10:48:23.527Z,60.8
2017-05-02T10:49:33.885Z,60.61
2017-05-02T10:50:43.939Z,60.71
2017-05-02T10:51:54.292Z,60.99
2017-05-02T10:53:04.653Z,60.93
2017-05-02T10:54:15.010Z,61.02
2017-05-02T10:55:25.367Z,60.73
2017-05-02T10:56:35.719Z,60.73
2017-05-02T10:57:45.744Z,60.96
2017-05-02T10:58:56.101Z,60.76
2017-05-02T11:00:06.458Z,60.76
2017-05-02T11:01:16.814Z,60.76
2017-05-02T11:02:27.176Z,60.86
2017-05-02T11:03:37.540Z,61.44
2017-05-02T11:04:47.262Z,60.96
2017-05-02T11:05:57.642Z,61.25
2017-05-02T11:07:08.008Z,60.67
2017-05-02T11:08:18.356Z,60.67
2017-05-02T11:09:28.409Z,60.67
2017-05-02T11:10:38.805Z,60.86
2017-05-02T11:11:49.151Z,61.15
2017-05-02T11:12:59.500Z,61.15
2017-05-02T11:14:09.545Z,60.96
2017-05-02T11:15:19.911Z,61.05
2017-05-02T11:16:30.273Z,60.76
2017-05-02T11:17:40.007Z,60.86
2017-05-02T11:18:50.081Z,60.76
2017-05-02T11:20:00.438Z,60.76
2017-05-02T11:21:10.779Z,61.15
2017-05-02T11:22:21.144Z,61.44
2017-05-02T11:23:31.494Z,61.44
2017-05-02T11:24:41.867Z,61.34
2017-05-02T11:25:51.596Z,61.44
2017-05-02T11:27:01.940Z,61.44
2017-05-02T11:28:11.983Z,61.15
2017-05-02T11:29:22.334Z,60.67
2017-05-02T11:30:32.693Z,60.86
2017-05-02T11:31:42.730Z,60.96
2017-05-02T11:32:53.073Z,60.86
2017-05-02T11:34:03.105Z,60.86
2017-05-02T11:35:13.454Z,61.25
2017-05-02T11:36:23.814Z,60.76
2017-05-02T11:37:34.174Z,61.05
2017-05-02T11:38:44.544Z,60.76
2017-05-02T11:39:54.898Z,61.08
2017-05-02T11:41:05.265Z,60.86
2017-05-02T11:42:15.647Z,60.69
2017-05-02T11:43:25.997Z,60.99
2017-05-02T11:44:36.345Z,61.18
2017-05-02T11:45:46.387Z,60.82
2017-05-02T11:46:56.472Z,60.92
2017-05-02T11:48:06.842Z,60.82
2017-05-02T11:49:16.918Z,61.02
2017-05-02T11:50:27.294Z,61.21
2017-05-02T11:51:37.649Z,61.21
2017-05-02T11:52:47.689Z,60.92
2017-05-02T11:53:57.750Z,61.02
2017-05-02T11:55:08.105Z,60.72
2017-05-02T11:56:18.494Z,61.11
2017-05-02T11:57:28.535Z,60.92
2017-05-02T11:58:38.898Z,61.37
2017-05-02T11:59:49.255Z,61.47
2017-05-02T12:00:59.623Z,61.27
2017-05-02T12:02:09.685Z,61.08
2017-05-02T12:03:20.037Z,61.27
2017-05-02T12:04:30.390Z,60.89
2017-05-02T12:05:40.752Z,60.69
2017-05-02T12:06:51.115Z,60.82
2017-05-02T12:08:01.470Z,60.82
2017-05-02T12:09:11.504Z,61.11
2017-05-02T12:10:21.545Z,60.53
2017-05-02T12:11:31.914Z,60.82
2017-05-02T12:12:42.286Z,60.66
2017-05-02T12:13:52.677Z,60.57
2017-05-02T12:15:02.715Z,60.3
2017-05-02T12:16:13.058Z,59.91
2017-05-02T12:17:23.399Z,59.66
2017-05-02T12:18:33.766Z,59.97
2017-05-02T12:19:43.816Z,59.2
2017-05-02T12:20:53.534Z,58.84
2017-05-02T12:22:03.264Z,58.67
2017-05-02T12:23:13.658Z,58.77
2017-05-02T12:24:24.018Z,58.77
2017-05-02T12:25:34.384Z,59.06
2017-05-02T12:26:44.729Z,59.16
2017-05-02T12:27:55.083Z,59.28
2017-05-02T12:29:05.124Z,59.28
2017-05-02T12:30:15.149Z,59.28
2017-05-02T12:31:25.518Z,59.38
2017-05-02T12:32:35.880Z,59
2017-05-02T12:33:46.254Z,59.38
2017-05-02T12:34:56.307Z,59.38
2017-05-02T12:36:06.661Z,59.31
2017-05-02T12:37:17.029Z,59.31
2017-05-02T12:38:27.386Z,59.12
2017-05-02T12:39:37.430Z,59.34
2017-05-02T12:40:47.472Z,58.57
2017-05-02T12:41:57.543Z,58.89
2017-05-02T12:43:07.921Z,58.79
2017-05-02T12:44:18.325Z,58.11
2017-05-02T12:45:28.692Z,58.62
2017-05-02T12:46:39.046Z,59.76
2017-05-02T12:47:49.092Z,59.95
2017-05-02T12:48:59.463Z,60.61
2017-05-02T12:50:09.834Z,60.48
2017-05-02T12:51:20.221Z,60.97
2017-05-02T12:52:30.593Z,61.42
2017-05-02T12:53:40.937Z,61.58
2017-05-02T12:56:51.009Z,62.43
2017-05-02T12:58:01.416Z,62.95
2017-05-02T12:59:11.789Z,62.53
2017-05-02T13:00:21.856Z,62.04
2017-05-02T13:01:31.594Z,62.24
2017-05-02T13:02:41.948Z,62.04
2017-05-02T13:03:52.296Z,61.56
2017-05-02T13:05:02.676Z,61.56
2017-05-02T13:06:12.726Z,62.34
2017-05-02T13:07:23.116Z,62.11
2017-05-02T13:08:33.169Z,62.69
2017-05-02T13:09:43.781Z,62.95
2017-05-02T13:10:54.171Z,62.82
2017-05-02T13:12:04.524Z,62.92
2017-05-02T13:13:14.882Z,62.63
2017-05-02T13:14:25.247Z,62.7
2017-05-02T13:15:35.632Z,62.79
2017-05-02T13:16:45.979Z,62.98
2017-05-02T13:17:56.368Z,63.34
2017-05-02T13:19:06.121Z,63.34
2017-05-02T13:20:16.479Z,63.34
2017-05-02T13:21:26.837Z,62.86
2017-05-02T13:22:37.188Z,62.66
2017-05-02T13:23:47.226Z,62.86
2017-05-02T13:24:57.625Z,62.54
2017-05-02T13:26:08.017Z,62.44
2017-05-02T13:27:18.366Z,62.63
2017-05-02T13:28:28.751Z,62.73
2017-05-02T13:29:39.109Z,62.63
2017-05-02T13:30:49.465Z,62.54
2017-05-02T13:31:59.547Z,62.7
2017-05-02T13:33:09.909Z,62.22
2017-05-02T13:34:19.936Z,62.34
2017-05-02T13:35:30.367Z,62.54
2017-05-02T13:36:40.736Z,62.15
2017-05-02T13:37:51.085Z,61.96
2017-05-02T13:39:01.474Z,61.96
2017-05-02T13:40:11.866Z,62.25
2017-05-02T13:41:22.250Z,61.67
2017-05-02T13:42:32.646Z,60.93
2017-05-02T13:43:43.054Z,60.64
2017-05-02T13:44:53.138Z,60.02
2017-05-02T13:46:03.514Z,59.56
2017-05-02T13:47:13.860Z,59.4
2017-05-02T13:48:23.903Z,59.05
2017-05-02T13:49:34.254Z,59.17
2017-05-02T13:50:44.288Z,58.88
2017-05-02T13:51:54.643Z,59.2
2017-05-02T13:53:05.044Z,59.2
2017-05-02T13:54:15.090Z,59.49
2017-05-02T13:55:25.149Z,60.07
2017-05-02T13:56:35.510Z,59.59
2017-05-02T13:57:44.949Z,59.61
2017-05-02T13:58:55.389Z,59.91
2017-05-02T14:00:05.465Z,59.71
2017-05-02T14:01:15.865Z,60.39
2017-05-02T14:02:26.235Z,60.75
2017-05-02T14:03:36.592Z,60.94
2017-05-02T14:04:46.962Z,60.94
2017-05-02T14:05:57.003Z,61.01
2017-05-02T14:07:07.049Z,61.3
2017-05-02T14:08:17.078Z,61.01
2017-05-02T14:09:26.813Z,61.18
2017-05-02T14:10:37.164Z,62.14
2017-05-02T14:11:46.907Z,62.59
2017-05-02T14:12:56.942Z,62.76
2017-05-02T14:14:07.295Z,62.82
2017-05-02T14:15:17.653Z,63.18
2017-05-02T14:16:27.697Z,62.98
2017-05-02T14:17:38.069Z,62.79
2017-05-02T14:18:48.112Z,62.76
2017-05-02T14:19:58.488Z,62.66
2017-05-02T14:21:08.861Z,62.37
2017-05-02T14:22:18.908Z,62.37
2017-05-02T14:23:29.260Z,61.89
2017-05-02T14:24:39.306Z,62.21
2017-05-02T14:25:49.648Z,62.18
2017-05-02T14:27:00.008Z,62.18
2017-05-02T14:28:10.370Z,61.8
2017-05-02T14:29:20.460Z,61.63
2017-05-02T14:30:30.857Z,61.34
2017-05-02T14:31:41.268Z,61.31
2017-05-02T14:32:51.664Z,62.18
2017-05-02T14:34:02.063Z,62.08
2017-05-02T14:35:12.482Z,61.99
2017-05-02T14:36:22.877Z,61.99
2017-05-02T14:37:33.266Z,61.89
2017-05-02T14:38:43.651Z,62.34
2017-05-02T14:39:54.100Z,62.54
2017-05-02T14:41:04.491Z,61.96
2017-05-02T14:42:14.878Z,61.57
2017-05-02T14:43:25.265Z,60.73
2017-05-02T14:44:35.650Z,60.76
2017-05-02T14:45:46.036Z,61.25
2017-05-02T14:46:56.081Z,61.12
2017-05-02T14:48:06.454Z,60.47
2017-05-02T14:49:16.824Z,60.11
2017-05-02T14:50:27.190Z,59.95
2017-05-02T14:51:37.328Z,59.59
2017-05-02T14:52:47.723Z,59.5
2017-05-02T14:53:58.084Z,59.89
2017-05-02T14:55:08.470Z,60.17
2017-05-02T14:56:18.516Z,60.17
2017-05-02T14:57:29.129Z,60.75
2017-05-02T14:58:39.498Z,60.66
2017-05-02T14:59:49.868Z,60.37
2017-05-02T15:01:00.244Z,60.57
2017-05-02T15:02:10.300Z,60.75
2017-05-02T15:03:20.649Z,60.75
2017-05-02T15:04:31.037Z,60.66
2017-05-02T15:05:41.083Z,61.24
2017-05-02T15:06:51.153Z,61.24
2017-05-02T15:08:01.533Z,61.21
2017-05-02T15:09:11.575Z,60.82
2017-05-02T15:10:21.636Z,61.11
2017-05-02T15:11:31.998Z,61.5
2017-05-02T15:12:42.370Z,61.3
2017-05-02T15:13:52.742Z,61.3
2017-05-02T15:15:03.135Z,61.37
2017-05-02T15:16:12.546Z,61.37
2017-05-02T15:17:22.267Z,61.27
2017-05-02T15:18:32.329Z,62.24
2017-05-02T15:19:42.691Z,61.73
2017-05-02T15:20:53.057Z,62.21
2017-05-02T15:22:03.708Z,62.76
2017-05-02T15:23:14.073Z,62.57
2017-05-02T15:24:24.469Z,62.54
2017-05-02T15:25:34.850Z,62.73
2017-05-02T15:26:45.027Z,62.54
2017-05-02T15:27:55.398Z,62.47
2017-05-02T15:29:05.757Z,62.05
2017-05-02T15:30:16.146Z,61.96
2017-05-02T15:31:26.194Z,61.12
2017-05-02T15:32:36.575Z,60.93
2017-05-02T15:33:46.968Z,61.25
2017-05-02T15:34:57.355Z,61.34
2017-05-02T15:36:07.729Z,60.76
2017-05-02T15:37:18.097Z,61.25
2017-05-02T15:38:28.525Z,61.05
2017-05-02T15:39:38.896Z,60.76